sensor_id;sensor_type;location;lat;lon;timestamp;temperature;humidity
10543;DHT22;5320;50.046;10.314;2022-11-13T00:02:09;3.70;99.90
10543;DHT22;5320;50.046;10.314;2022-11-13T00:04:34;3.70;99.90
10543;DHT22;5320;50.046;10.314;2022-11-13T00:07:00;3.70;99.90
10543;DHT22;5320;50.046;10.314;2022-11-13T00:09:26;3.70;99.90
10543;DHT22;5320;50.046;10.314;2022-11-13T00:11:51;3.60;99.90
10543;DHT22;5320;50.046;10.314;2022-11-13T00:14:17;3.70;99.90
10543;DHT22;5320;50.046;10.314;2022-11-13T00:16:42;3.60;99.90
10543;DHT22;5320;50.046;10.314;2022-11-13T00:19:08;3.60;99.90
10543;DHT22;5320;50.046;10.314;2022-11-13T00:21:34;3.60;99.90
10543;DHT22;5320;50.046;10.314;2022-11-13T00:23:59;3.70;99.90
10543;DHT22;5320;50.046;10.314;2022-11-13T00:26:27;3.70;99.90
10543;DHT22;5320;50.046;10.314;2022-11-13T00:28:58;3.70;99.90
10543;DHT22;5320;50.046;10.314;2022-11-13T00:31:24;3.70;99.90
10543;DHT22;5320;50.046;10.314;2022-11-13T00:33:50;3.60;99.90
10543;DHT22;5320;50.046;10.314;2022-11-13T00:36:21;3.60;99.90
10543;DHT22;5320;50.046;10.314;2022-11-13T00:38:47;3.60;99.90
10543;DHT22;5320;50.046;10.314;2022-11-13T00:41:13;3.60;99.90
10543;DHT22;5320;50.046;10.314;2022-11-13T00:43:39;3.60;99.90
10543;DHT22;5320;50.046;10.314;2022-11-13T00:46:05;3.60;99.90
10543;DHT22;5320;50.046;10.314;2022-11-13T00:48:32;3.40;99.90
10543;DHT22;5320;50.046;10.314;2022-11-13T00:50:58;3.40;99.90
10543;DHT22;5320;50.046;10.314;2022-11-13T00:53:24;3.40;99.90
10543;DHT22;5320;50.046;10.314;2022-11-13T00:55:49;3.40;99.90
10543;DHT22;5320;50.046;10.314;2022-11-13T00:58:15;3.40;99.90
10543;DHT22;5320;50.046;10.314;2022-11-13T01:00:43;3.40;99.90
10543;DHT22;5320;50.046;10.314;2022-11-13T01:03:10;3.40;99.90
10543;DHT22;5320;50.046;10.314;2022-11-13T01:05:42;3.30;99.90
10543;DHT22;5320;50.046;10.314;2022-11-13T01:08:08;3.20;99.90
10543;DHT22;5320;50.046;10.314;2022-11-13T01:10:40;3.10;99.90
10543;DHT22;5320;50.046;10.314;2022-11-13T01:13:06;3.10;99.90
10543;DHT22;5320;50.046;10.314;2022-11-13T01:15:32;3.10;99.90
10543;DHT22;5320;50.046;10.314;2022-11-13T01:17:58;3.10;99.90
10543;DHT22;5320;50.046;10.314;2022-11-13T01:20:25;3.10;99.90
10543;DHT22;5320;50.046;10.314;2022-11-13T01:22:50;3.10;99.90
10543;DHT22;5320;50.046;10.314;2022-11-13T01:25:17;3.10;99.90
10543;DHT22;5320;50.046;10.314;2022-11-13T01:27:43;3.10;99.90
10543;DHT22;5320;50.046;10.314;2022-11-13T01:30:09;3.00;99.90
10543;DHT22;5320;50.046;10.314;2022-11-13T01:32:36;3.00;99.90
10543;DHT22;5320;50.046;10.314;2022-11-13T01:35:01;3.00;99.90
10543;DHT22;5320;50.046;10.314;2022-11-13T01:37:27;2.90;99.90
10543;DHT22;5320;50.046;10.314;2022-11-13T01:39:53;2.90;99.90
10543;DHT22;5320;50.046;10.314;2022-11-13T01:42:18;2.80;99.90
10543;DHT22;5320;50.046;10.314;2022-11-13T01:44:59;2.80;99.90
10543;DHT22;5320;50.046;10.314;2022-11-13T01:47:25;2.90;99.90
10543;DHT22;5320;50.046;10.314;2022-11-13T01:49:54;2.90;99.90
10543;DHT22;5320;50.046;10.314;2022-11-13T01:52:25;2.90;99.90
10543;DHT22;5320;50.046;10.314;2022-11-13T01:55:07;2.90;99.90
10543;DHT22;5320;50.046;10.314;2022-11-13T01:57:35;2.80;99.90
10543;DHT22;5320;50.046;10.314;2022-11-13T02:00:06;2.80;99.90
10543;DHT22;5320;50.046;10.314;2022-11-13T02:02:32;2.80;99.90
10543;DHT22;5320;50.046;10.314;2022-11-13T02:04:58;2.80;99.90
10543;DHT22;5320;50.046;10.314;2022-11-13T02:07:24;2.80;99.90
10543;DHT22;5320;50.046;10.314;2022-11-13T02:09:52;2.80;99.90
10543;DHT22;5320;50.046;10.314;2022-11-13T02:12:41;2.80;99.90
10543;DHT22;5320;50.046;10.314;2022-11-13T02:15:08;2.80;99.90
10543;DHT22;5320;50.046;10.314;2022-11-13T02:17:48;2.80;99.90
10543;DHT22;5320;50.046;10.314;2022-11-13T02:20:15;2.70;99.90
10543;DHT22;5320;50.046;10.314;2022-11-13T02:22:47;2.80;99.90
10543;DHT22;5320;50.046;10.314;2022-11-13T02:25:16;2.70;99.90
10543;DHT22;5320;50.046;10.314;2022-11-13T02:27:45;2.70;99.90
10543;DHT22;5320;50.046;10.314;2022-11-13T02:32:46;2.80;99.90
10543;DHT22;5320;50.046;10.314;2022-11-13T02:35:23;2.80;99.90
10543;DHT22;5320;50.046;10.314;2022-11-13T02:37:49;2.80;99.90
10543;DHT22;5320;50.046;10.314;2022-11-13T02:40:16;2.80;99.90
10543;DHT22;5320;50.046;10.314;2022-11-13T02:42:41;2.80;99.90
10543;DHT22;5320;50.046;10.314;2022-11-13T02:45:07;2.80;99.90
10543;DHT22;5320;50.046;10.314;2022-11-13T02:47:33;2.80;99.90
10543;DHT22;5320;50.046;10.314;2022-11-13T02:49:59;2.80;99.90
10543;DHT22;5320;50.046;10.314;2022-11-13T02:52:25;2.70;99.90
10543;DHT22;5320;50.046;10.314;2022-11-13T02:54:50;2.70;99.90
10543;DHT22;5320;50.046;10.314;2022-11-13T02:57:16;2.60;99.90
10543;DHT22;5320;50.046;10.314;2022-11-13T02:59:42;2.60;99.90
10543;DHT22;5320;50.046;10.314;2022-11-13T03:02:08;2.60;99.90
10543;DHT22;5320;50.046;10.314;2022-11-13T03:04:33;2.50;99.90
10543;DHT22;5320;50.046;10.314;2022-11-13T03:06:59;2.50;99.90
10543;DHT22;5320;50.046;10.314;2022-11-13T03:09:25;2.50;99.90
10543;DHT22;5320;50.046;10.314;2022-11-13T03:11:50;2.40;99.90
10543;DHT22;5320;50.046;10.314;2022-11-13T03:14:16;2.40;99.90
10543;DHT22;5320;50.046;10.314;2022-11-13T03:16:42;2.40;99.90
10543;DHT22;5320;50.046;10.314;2022-11-13T03:19:07;2.40;99.90
10543;DHT22;5320;50.046;10.314;2022-11-13T03:21:33;2.40;99.90
10543;DHT22;5320;50.046;10.314;2022-11-13T03:23:59;2.50;99.90
10543;DHT22;5320;50.046;10.314;2022-11-13T03:26:24;2.50;99.90
10543;DHT22;5320;50.046;10.314;2022-11-13T03:28:53;2.50;99.90
10543;DHT22;5320;50.046;10.314;2022-11-13T03:31:18;2.50;99.90
10543;DHT22;5320;50.046;10.314;2022-11-13T03:33:44;2.50;99.90
10543;DHT22;5320;50.046;10.314;2022-11-13T03:36:10;2.60;99.90
10543;DHT22;5320;50.046;10.314;2022-11-13T03:38:36;2.60;99.90
10543;DHT22;5320;50.046;10.314;2022-11-13T03:41:02;2.60;99.90
10543;DHT22;5320;50.046;10.314;2022-11-13T03:43:28;2.40;99.90
10543;DHT22;5320;50.046;10.314;2022-11-13T03:45:54;2.20;99.90
10543;DHT22;5320;50.046;10.314;2022-11-13T03:48:19;2.10;99.90
10543;DHT22;5320;50.046;10.314;2022-11-13T03:50:48;2.10;99.90
10543;DHT22;5320;50.046;10.314;2022-11-13T03:53:14;2.20;99.90
10543;DHT22;5320;50.046;10.314;2022-11-13T03:55:40;2.30;99.90
10543;DHT22;5320;50.046;10.314;2022-11-13T03:58:06;2.40;99.90
10543;DHT22;5320;50.046;10.314;2022-11-13T04:00:32;2.40;99.90
10543;DHT22;5320;50.046;10.314;2022-11-13T04:02:58;2.30;99.90
10543;DHT22;5320;50.046;10.314;2022-11-13T04:05:23;2.30;99.90
10543;DHT22;5320;50.046;10.314;2022-11-13T04:07:50;2.30;99.90
10543;DHT22;5320;50.046;10.314;2022-11-13T04:10:16;2.30;99.90
10543;DHT22;5320;50.046;10.314;2022-11-13T04:12:42;2.30;99.90
10543;DHT22;5320;50.046;10.314;2022-11-13T04:15:07;2.20;99.90
10543;DHT22;5320;50.046;10.314;2022-11-13T04:17:33;2.20;99.90
10543;DHT22;5320;50.046;10.314;2022-11-13T04:19:59;2.20;99.90
10543;DHT22;5320;50.046;10.314;2022-11-13T04:22:24;2.20;99.90
10543;DHT22;5320;50.046;10.314;2022-11-13T04:24:50;2.20;99.90
10543;DHT22;5320;50.046;10.314;2022-11-13T04:27:15;2.10;99.90
10543;DHT22;5320;50.046;10.314;2022-11-13T04:29:41;2.10;99.90
10543;DHT22;5320;50.046;10.314;2022-11-13T04:32:06;2.10;99.90
10543;DHT22;5320;50.046;10.314;2022-11-13T04:34:32;2.10;99.90
10543;DHT22;5320;50.046;10.314;2022-11-13T04:36:58;2.00;99.90
10543;DHT22;5320;50.046;10.314;2022-11-13T04:39:23;2.00;99.90
10543;DHT22;5320;50.046;10.314;2022-11-13T04:41:49;2.00;99.90
10543;DHT22;5320;50.046;10.314;2022-11-13T04:44:33;2.00;99.90
10543;DHT22;5320;50.046;10.314;2022-11-13T04:46:59;1.90;99.90
10543;DHT22;5320;50.046;10.314;2022-11-13T04:49:24;1.90;99.90
10543;DHT22;5320;50.046;10.314;2022-11-13T04:51:50;1.90;99.90
10543;DHT22;5320;50.046;10.314;2022-11-13T04:54:15;1.80;99.90
10543;DHT22;5320;50.046;10.314;2022-11-13T04:56:41;1.80;99.90
10543;DHT22;5320;50.046;10.314;2022-11-13T04:59:07;1.70;99.90
10543;DHT22;5320;50.046;10.314;2022-11-13T05:01:34;1.70;99.90
10543;DHT22;5320;50.046;10.314;2022-11-13T05:04:00;1.80;99.90
10543;DHT22;5320;50.046;10.314;2022-11-13T05:06:26;1.80;99.90
10543;DHT22;5320;50.046;10.314;2022-11-13T05:08:51;1.80;99.90
10543;DHT22;5320;50.046;10.314;2022-11-13T05:11:17;1.80;99.90
10543;DHT22;5320;50.046;10.314;2022-11-13T05:13:43;1.80;99.90
10543;DHT22;5320;50.046;10.314;2022-11-13T05:16:10;1.90;99.90
10543;DHT22;5320;50.046;10.314;2022-11-13T05:18:37;1.90;99.90
10543;DHT22;5320;50.046;10.314;2022-11-13T05:21:04;1.90;99.90
10543;DHT22;5320;50.046;10.314;2022-11-13T05:23:31;1.80;99.90
10543;DHT22;5320;50.046;10.314;2022-11-13T05:26:02;1.80;99.90
10543;DHT22;5320;50.046;10.314;2022-11-13T05:28:28;1.70;99.90
10543;DHT22;5320;50.046;10.314;2022-11-13T05:31:02;1.70;99.90
10543;DHT22;5320;50.046;10.314;2022-11-13T05:33:28;1.70;99.90
10543;DHT22;5320;50.046;10.314;2022-11-13T05:35:53;1.70;99.90
10543;DHT22;5320;50.046;10.314;2022-11-13T05:38:19;1.70;99.90
10543;DHT22;5320;50.046;10.314;2022-11-13T05:40:45;1.70;99.90
10543;DHT22;5320;50.046;10.314;2022-11-13T05:43:10;1.80;99.90
10543;DHT22;5320;50.046;10.314;2022-11-13T05:45:36;1.80;99.90
10543;DHT22;5320;50.046;10.314;2022-11-13T05:48:01;1.80;99.90
10543;DHT22;5320;50.046;10.314;2022-11-13T05:50:27;1.80;99.90
10543;DHT22;5320;50.046;10.314;2022-11-13T05:52:52;1.80;99.90
10543;DHT22;5320;50.046;10.314;2022-11-13T05:55:18;1.90;99.90
10543;DHT22;5320;50.046;10.314;2022-11-13T05:57:44;1.90;99.90
10543;DHT22;5320;50.046;10.314;2022-11-13T06:00:10;1.90;99.90
10543;DHT22;5320;50.046;10.314;2022-11-13T06:02:35;1.80;99.90
10543;DHT22;5320;50.046;10.314;2022-11-13T06:05:01;1.80;99.90
10543;DHT22;5320;50.046;10.314;2022-11-13T06:07:27;1.80;99.90
10543;DHT22;5320;50.046;10.314;2022-11-13T06:09:52;1.80;99.90
10543;DHT22;5320;50.046;10.314;2022-11-13T06:12:18;1.80;99.90
10543;DHT22;5320;50.046;10.314;2022-11-13T06:14:43;1.80;99.90
10543;DHT22;5320;50.046;10.314;2022-11-13T06:17:09;1.70;99.90
10543;DHT22;5320;50.046;10.314;2022-11-13T06:19:34;1.70;99.90
10543;DHT22;5320;50.046;10.314;2022-11-13T06:22:00;1.60;99.90
10543;DHT22;5320;50.046;10.314;2022-11-13T06:24:26;1.50;99.90
10543;DHT22;5320;50.046;10.314;2022-11-13T06:26:51;1.30;99.90
10543;DHT22;5320;50.046;10.314;2022-11-13T06:29:18;1.40;99.90
10543;DHT22;5320;50.046;10.314;2022-11-13T06:31:43;1.40;99.90
10543;DHT22;5320;50.046;10.314;2022-11-13T06:34:09;1.40;99.90
10543;DHT22;5320;50.046;10.314;2022-11-13T06:36:36;1.50;99.90
10543;DHT22;5320;50.046;10.314;2022-11-13T06:39:05;1.50;99.90
10543;DHT22;5320;50.046;10.314;2022-11-13T06:41:31;1.50;99.90
10543;DHT22;5320;50.046;10.314;2022-11-13T06:43:57;1.50;99.90
10543;DHT22;5320;50.046;10.314;2022-11-13T06:46:26;1.50;99.90
10543;DHT22;5320;50.046;10.314;2022-11-13T06:48:53;1.50;99.90
10543;DHT22;5320;50.046;10.314;2022-11-13T06:51:20;1.40;99.90
10543;DHT22;5320;50.046;10.314;2022-11-13T06:53:47;1.50;99.90
10543;DHT22;5320;50.046;10.314;2022-11-13T06:56:13;1.50;99.90
10543;DHT22;5320;50.046;10.314;2022-11-13T06:58:39;1.60;99.90
10543;DHT22;5320;50.046;10.314;2022-11-13T07:01:06;1.60;99.90
10543;DHT22;5320;50.046;10.314;2022-11-13T07:03:32;1.70;99.90
10543;DHT22;5320;50.046;10.314;2022-11-13T07:06:03;1.70;99.90
10543;DHT22;5320;50.046;10.314;2022-11-13T07:08:29;1.70;99.90
10543;DHT22;5320;50.046;10.314;2022-11-13T07:10:56;1.60;99.90
10543;DHT22;5320;50.046;10.314;2022-11-13T07:13:23;1.50;99.90
10543;DHT22;5320;50.046;10.314;2022-11-13T07:15:48;1.50;99.90
10543;DHT22;5320;50.046;10.314;2022-11-13T07:18:14;1.60;99.90
10543;DHT22;5320;50.046;10.314;2022-11-13T07:20:40;1.80;99.90
10543;DHT22;5320;50.046;10.314;2022-11-13T07:23:05;1.90;99.90
10543;DHT22;5320;50.046;10.314;2022-11-13T07:25:31;1.90;99.90
10543;DHT22;5320;50.046;10.314;2022-11-13T07:27:57;1.90;99.90
10543;DHT22;5320;50.046;10.314;2022-11-13T07:30:23;1.90;99.90
10543;DHT22;5320;50.046;10.314;2022-11-13T07:32:48;1.90;99.90
10543;DHT22;5320;50.046;10.314;2022-11-13T07:35:14;2.00;99.90
10543;DHT22;5320;50.046;10.314;2022-11-13T07:37:41;2.10;99.90
10543;DHT22;5320;50.046;10.314;2022-11-13T07:40:07;2.10;99.90
10543;DHT22;5320;50.046;10.314;2022-11-13T07:42:33;2.30;99.90
10543;DHT22;5320;50.046;10.314;2022-11-13T07:44:59;2.50;99.90
10543;DHT22;5320;50.046;10.314;2022-11-13T07:47:24;2.70;99.90
10543;DHT22;5320;50.046;10.314;2022-11-13T07:49:50;2.80;99.90
10543;DHT22;5320;50.046;10.314;2022-11-13T07:52:16;2.80;99.90
10543;DHT22;5320;50.046;10.314;2022-11-13T07:54:41;2.90;99.90
10543;DHT22;5320;50.046;10.314;2022-11-13T07:57:07;3.10;99.90
10543;DHT22;5320;50.046;10.314;2022-11-13T07:59:33;3.20;99.90
10543;DHT22;5320;50.046;10.314;2022-11-13T08:01:59;3.50;99.90
10543;DHT22;5320;50.046;10.314;2022-11-13T08:04:24;3.60;99.90
10543;DHT22;5320;50.046;10.314;2022-11-13T08:06:50;3.80;99.90
10543;DHT22;5320;50.046;10.314;2022-11-13T08:09:16;3.90;99.90
10543;DHT22;5320;50.046;10.314;2022-11-13T08:11:41;4.00;99.90
10543;DHT22;5320;50.046;10.314;2022-11-13T08:14:07;4.20;99.90
10543;DHT22;5320;50.046;10.314;2022-11-13T08:16:33;4.30;99.90
10543;DHT22;5320;50.046;10.314;2022-11-13T08:18:58;4.40;99.90
10543;DHT22;5320;50.046;10.314;2022-11-13T08:21:24;4.50;99.90
10543;DHT22;5320;50.046;10.314;2022-11-13T08:23:49;4.30;99.90
10543;DHT22;5320;50.046;10.314;2022-11-13T08:26:16;4.20;99.90
10543;DHT22;5320;50.046;10.314;2022-11-13T08:28:42;4.10;99.90
10543;DHT22;5320;50.046;10.314;2022-11-13T08:31:10;3.90;99.90
10543;DHT22;5320;50.046;10.314;2022-11-13T08:33:36;3.80;99.90
10543;DHT22;5320;50.046;10.314;2022-11-13T08:36:02;3.80;99.90
10543;DHT22;5320;50.046;10.314;2022-11-13T08:38:28;3.80;99.90
10543;DHT22;5320;50.046;10.314;2022-11-13T08:41:02;4.00;99.90
10543;DHT22;5320;50.046;10.314;2022-11-13T08:43:28;4.30;99.90
10543;DHT22;5320;50.046;10.314;2022-11-13T08:45:54;4.50;99.90
10543;DHT22;5320;50.046;10.314;2022-11-13T08:48:20;4.90;99.90
10543;DHT22;5320;50.046;10.314;2022-11-13T08:50:50;5.20;99.90
10543;DHT22;5320;50.046;10.314;2022-11-13T08:53:16;5.60;99.90
10543;DHT22;5320;50.046;10.314;2022-11-13T08:55:41;5.90;99.90
10543;DHT22;5320;50.046;10.314;2022-11-13T08:58:08;6.10;99.90
10543;DHT22;5320;50.046;10.314;2022-11-13T09:00:33;6.20;99.90
10543;DHT22;5320;50.046;10.314;2022-11-13T09:03:01;6.60;99.90
10543;DHT22;5320;50.046;10.314;2022-11-13T09:05:27;6.20;99.90
10543;DHT22;5320;50.046;10.314;2022-11-13T09:07:57;5.90;99.90
10543;DHT22;5320;50.046;10.314;2022-11-13T09:10:24;6.20;99.90
10543;DHT22;5320;50.046;10.314;2022-11-13T09:12:58;6.30;99.90
10543;DHT22;5320;50.046;10.314;2022-11-13T09:15:26;6.40;99.90
10543;DHT22;5320;50.046;10.314;2022-11-13T09:17:55;6.50;99.90
10543;DHT22;5320;50.046;10.314;2022-11-13T09:20:21;6.50;99.90
10543;DHT22;5320;50.046;10.314;2022-11-13T09:22:47;7.00;99.90
10543;DHT22;5320;50.046;10.314;2022-11-13T09:25:12;7.40;99.90
10543;DHT22;5320;50.046;10.314;2022-11-13T09:27:38;7.50;99.90
10543;DHT22;5320;50.046;10.314;2022-11-13T09:30:03;7.80;99.90
10543;DHT22;5320;50.046;10.314;2022-11-13T09:32:30;8.10;99.90
10543;DHT22;5320;50.046;10.314;2022-11-13T09:34:55;7.80;99.90
10543;DHT22;5320;50.046;10.314;2022-11-13T09:37:21;7.90;99.90
10543;DHT22;5320;50.046;10.314;2022-11-13T09:39:46;7.90;99.90
10543;DHT22;5320;50.046;10.314;2022-11-13T09:42:18;8.10;99.90
10543;DHT22;5320;50.046;10.314;2022-11-13T09:45:03;8.40;99.90
10543;DHT22;5320;50.046;10.314;2022-11-13T09:47:36;8.80;99.90
10543;DHT22;5320;50.046;10.314;2022-11-13T09:50:25;9.20;99.90
10543;DHT22;5320;50.046;10.314;2022-11-13T09:52:52;9.30;99.90
10543;DHT22;5320;50.046;10.314;2022-11-13T09:55:22;9.20;99.90
10543;DHT22;5320;50.046;10.314;2022-11-13T09:58:07;9.40;99.90
10543;DHT22;5320;50.046;10.314;2022-11-13T10:00:36;9.70;91.40
10543;DHT22;5320;50.046;10.314;2022-11-13T10:03:27;10.10;85.60
10543;DHT22;5320;50.046;10.314;2022-11-13T10:06:05;10.50;1.00
10543;DHT22;5320;50.046;10.314;2022-11-13T10:08:54;10.10;1.00
10543;DHT22;5320;50.046;10.314;2022-11-13T10:11:57;9.90;1.00
10543;DHT22;5320;50.046;10.314;2022-11-13T10:17:07;10.30;99.90
10543;DHT22;5320;50.046;10.314;2022-11-13T10:24:45;10.80;1.00
10543;DHT22;5320;50.046;10.314;2022-11-13T10:27:13;11.10;1.00
10543;DHT22;5320;50.046;10.314;2022-11-13T10:29:40;11.40;1.00
10543;DHT22;5320;50.046;10.314;2022-11-13T10:32:20;11.80;1.00
10543;DHT22;5320;50.046;10.314;2022-11-13T10:34:59;12.00;99.90
10543;DHT22;5320;50.046;10.314;2022-11-13T10:38:00;12.30;1.00
10543;DHT22;5320;50.046;10.314;2022-11-13T10:40:28;12.60;99.90
10543;DHT22;5320;50.046;10.314;2022-11-13T10:43:04;12.60;1.00
10543;DHT22;5320;50.046;10.314;2022-11-13T10:45:29;12.50;1.00
10543;DHT22;5320;50.046;10.314;2022-11-13T10:47:55;12.60;1.00
10543;DHT22;5320;50.046;10.314;2022-11-13T10:50:26;12.50;99.90
10543;DHT22;5320;50.046;10.314;2022-11-13T10:52:53;12.50;35.40
10543;DHT22;5320;50.046;10.314;2022-11-13T10:58:01;13.20;1.00
10543;DHT22;5320;50.046;10.314;2022-11-13T11:00:36;13.40;99.90
10543;DHT22;5320;50.046;10.314;2022-11-13T11:03:07;13.60;1.00
10543;DHT22;5320;50.046;10.314;2022-11-13T11:05:33;13.90;1.00
10543;DHT22;5320;50.046;10.314;2022-11-13T11:07:59;14.30;1.00
10543;DHT22;5320;50.046;10.314;2022-11-13T11:10:39;14.50;1.00
10543;DHT22;5320;50.046;10.314;2022-11-13T11:13:25;14.00;92.00
10543;DHT22;5320;50.046;10.314;2022-11-13T11:15:55;13.50;1.00
10543;DHT22;5320;50.046;10.314;2022-11-13T11:18:43;13.60;99.90
10543;DHT22;5320;50.046;10.314;2022-11-13T11:21:18;13.60;59.00
10543;DHT22;5320;50.046;10.314;2022-11-13T11:24:19;13.50;1.00
10543;DHT22;5320;50.046;10.314;2022-11-13T11:27:02;13.50;1.00
10543;DHT22;5320;50.046;10.314;2022-11-13T11:29:51;13.70;1.00
10543;DHT22;5320;50.046;10.314;2022-11-13T11:32:26;13.90;1.00
10543;DHT22;5320;50.046;10.314;2022-11-13T11:35:20;13.70;1.00
10543;DHT22;5320;50.046;10.314;2022-11-13T11:37:50;13.90;99.90
10543;DHT22;5320;50.046;10.314;2022-11-13T11:40:39;14.30;99.90
10543;DHT22;5320;50.046;10.314;2022-11-13T11:43:26;14.60;1.00
10543;DHT22;5320;50.046;10.314;2022-11-13T11:45:57;14.80;1.00
10543;DHT22;5320;50.046;10.314;2022-11-13T11:48:28;14.80;1.00
10543;DHT22;5320;50.046;10.314;2022-11-13T11:51:29;14.80;1.00
10543;DHT22;5320;50.046;10.314;2022-11-13T11:54:18;15.00;1.00
10543;DHT22;5320;50.046;10.314;2022-11-13T11:56:52;15.00;1.00
10543;DHT22;5320;50.046;10.314;2022-11-13T12:07:31;16.50;17.80
10543;DHT22;5320;50.046;10.314;2022-11-13T12:12:53;16.30;16.00
10543;DHT22;5320;50.046;10.314;2022-11-13T12:15:38;16.40;32.50
10543;DHT22;5320;50.046;10.314;2022-11-13T12:24:02;16.20;22.20
10543;DHT22;5320;50.046;10.314;2022-11-13T12:36:55;17.00;1.00
10543;DHT22;5320;50.046;10.314;2022-11-13T12:39:50;16.80;1.90
10543;DHT22;5320;50.046;10.314;2022-11-13T12:42:33;17.20;2.50
10543;DHT22;5320;50.046;10.314;2022-11-13T12:45:11;17.40;2.70
10543;DHT22;5320;50.046;10.314;2022-11-13T12:47:39;17.70;1.00
10543;DHT22;5320;50.046;10.314;2022-11-13T12:52:57;18.00;1.00
10543;DHT22;5320;50.046;10.314;2022-11-13T12:55:26;18.30;1.00
10543;DHT22;5320;50.046;10.314;2022-11-13T12:57:52;18.40;1.00
10543;DHT22;5320;50.046;10.314;2022-11-13T13:00:24;18.60;1.00
10543;DHT22;5320;50.046;10.314;2022-11-13T13:09:02;19.10;1.00
10543;DHT22;5320;50.046;10.314;2022-11-13T13:11:57;19.00;1.00
10543;DHT22;5320;50.046;10.314;2022-11-13T13:15:00;19.20;1.00
10543;DHT22;5320;50.046;10.314;2022-11-13T13:17:30;19.20;1.00
10543;DHT22;5320;50.046;10.314;2022-11-13T13:20:44;19.10;1.00
10543;DHT22;5320;50.046;10.314;2022-11-13T13:22:42;19.10;1.00
10543;DHT22;5320;50.046;10.314;2022-11-13T13:25:34;19.00;1.00
10543;DHT22;5320;50.046;10.314;2022-11-13T13:28:03;19.10;1.00
10543;DHT22;5320;50.046;10.314;2022-11-13T13:30:56;19.10;1.00
10543;DHT22;5320;50.046;10.314;2022-11-13T13:33:52;19.20;1.00
10543;DHT22;5320;50.046;10.314;2022-11-13T13:42:15;19.40;1.00
10543;DHT22;5320;50.046;10.314;2022-11-13T13:47:56;19.60;1.00
10543;DHT22;5320;50.046;10.314;2022-11-13T13:50:29;19.40;1.00
10543;DHT22;5320;50.046;10.314;2022-11-13T13:52:57;19.30;1.00
10543;DHT22;5320;50.046;10.314;2022-11-13T13:55:38;19.20;1.00
10543;DHT22;5320;50.046;10.314;2022-11-13T13:58:12;19.20;1.00
10543;DHT22;5320;50.046;10.314;2022-11-13T14:00:39;19.10;1.00
10543;DHT22;5320;50.046;10.314;2022-11-13T14:03:19;19.00;1.00
10543;DHT22;5320;50.046;10.314;2022-11-13T14:05:45;18.90;1.00
10543;DHT22;5320;50.046;10.314;2022-11-13T14:08:22;18.80;1.00
10543;DHT22;5320;50.046;10.314;2022-11-13T14:10:50;18.90;1.00
10543;DHT22;5320;50.046;10.314;2022-11-13T14:13:28;19.10;1.00
10543;DHT22;5320;50.046;10.314;2022-11-13T14:16:05;19.10;1.00
10543;DHT22;5320;50.046;10.314;2022-11-13T14:18:32;19.10;1.00
10543;DHT22;5320;50.046;10.314;2022-11-13T14:21:01;19.20;1.00
10543;DHT22;5320;50.046;10.314;2022-11-13T14:23:36;19.10;1.00
10543;DHT22;5320;50.046;10.314;2022-11-13T14:26:05;19.10;1.00
10543;DHT22;5320;50.046;10.314;2022-11-13T14:28:41;19.10;1.00
10543;DHT22;5320;50.046;10.314;2022-11-13T14:31:10;19.10;1.00
10543;DHT22;5320;50.046;10.314;2022-11-13T14:33:46;19.10;1.00
10543;DHT22;5320;50.046;10.314;2022-11-13T14:36:13;19.00;1.00
10543;DHT22;5320;50.046;10.314;2022-11-13T14:38:43;19.00;1.00
10543;DHT22;5320;50.046;10.314;2022-11-13T14:41:34;19.10;1.00
10543;DHT22;5320;50.046;10.314;2022-11-13T14:44:00;19.20;1.00
10543;DHT22;5320;50.046;10.314;2022-11-13T14:46:29;19.20;1.00
10543;DHT22;5320;50.046;10.314;2022-11-13T14:48:55;19.10;1.00
10543;DHT22;5320;50.046;10.314;2022-11-13T14:51:24;19.10;1.00
10543;DHT22;5320;50.046;10.314;2022-11-13T14:54:02;19.10;1.00
10543;DHT22;5320;50.046;10.314;2022-11-13T14:56:35;19.00;1.00
10543;DHT22;5320;50.046;10.314;2022-11-13T14:59:12;18.90;1.00
10543;DHT22;5320;50.046;10.314;2022-11-13T15:01:38;18.90;1.00
10543;DHT22;5320;50.046;10.314;2022-11-13T15:04:04;19.00;1.00
10543;DHT22;5320;50.046;10.314;2022-11-13T15:06:38;18.90;1.00
10543;DHT22;5320;50.046;10.314;2022-11-13T15:09:08;18.60;1.00
10543;DHT22;5320;50.046;10.314;2022-11-13T15:11:35;18.50;1.00
10543;DHT22;5320;50.046;10.314;2022-11-13T15:14:09;18.30;1.00
10543;DHT22;5320;50.046;10.314;2022-11-13T15:16:36;18.30;1.00
10543;DHT22;5320;50.046;10.314;2022-11-13T15:19:04;18.20;1.00
10543;DHT22;5320;50.046;10.314;2022-11-13T15:21:32;18.20;1.00
10543;DHT22;5320;50.046;10.314;2022-11-13T15:23:57;18.30;1.00
10543;DHT22;5320;50.046;10.314;2022-11-13T15:26:25;18.40;1.00
10543;DHT22;5320;50.046;10.314;2022-11-13T15:28:51;18.40;1.00
10543;DHT22;5320;50.046;10.314;2022-11-13T15:31:25;18.40;1.00
10543;DHT22;5320;50.046;10.314;2022-11-13T15:33:53;18.30;1.00
10543;DHT22;5320;50.046;10.314;2022-11-13T15:36:19;18.00;1.00
10543;DHT22;5320;50.046;10.314;2022-11-13T15:38:44;17.40;1.00
10543;DHT22;5320;50.046;10.314;2022-11-13T15:41:29;16.80;1.00
10543;DHT22;5320;50.046;10.314;2022-11-13T15:43:55;16.30;1.00
10543;DHT22;5320;50.046;10.314;2022-11-13T15:46:23;15.90;1.00
10543;DHT22;5320;50.046;10.314;2022-11-13T15:48:49;15.60;1.00
10543;DHT22;5320;50.046;10.314;2022-11-13T15:53:49;14.90;1.00
10543;DHT22;5320;50.046;10.314;2022-11-13T15:56:17;14.70;1.00
10543;DHT22;5320;50.046;10.314;2022-11-13T15:58:42;14.50;1.00
10543;DHT22;5320;50.046;10.314;2022-11-13T16:01:12;14.40;1.00
10543;DHT22;5320;50.046;10.314;2022-11-13T16:03:38;14.30;1.00
10543;DHT22;5320;50.046;10.314;2022-11-13T16:06:11;14.10;1.00
10543;DHT22;5320;50.046;10.314;2022-11-13T16:08:37;14.00;1.00
10543;DHT22;5320;50.046;10.314;2022-11-13T16:11:03;13.90;4.30
10543;DHT22;5320;50.046;10.314;2022-11-13T16:13:29;13.70;2.30
10543;DHT22;5320;50.046;10.314;2022-11-13T16:15:54;13.60;8.80
10543;DHT22;5320;50.046;10.314;2022-11-13T16:18:26;13.60;6.20
10543;DHT22;5320;50.046;10.314;2022-11-13T16:20:53;13.40;5.40
10543;DHT22;5320;50.046;10.314;2022-11-13T16:23:18;13.30;15.30
10543;DHT22;5320;50.046;10.314;2022-11-13T16:25:45;13.30;21.60
10543;DHT22;5320;50.046;10.314;2022-11-13T16:28:16;13.20;23.60
10543;DHT22;5320;50.046;10.314;2022-11-13T16:30:42;13.10;27.80
10543;DHT22;5320;50.046;10.314;2022-11-13T16:33:08;13.00;33.50
10543;DHT22;5320;50.046;10.314;2022-11-13T16:35:35;12.90;44.20
10543;DHT22;5320;50.046;10.314;2022-11-13T16:38:00;12.90;44.80
10543;DHT22;5320;50.046;10.314;2022-11-13T16:40:26;12.80;41.00
10543;DHT22;5320;50.046;10.314;2022-11-13T16:42:52;12.70;47.10
10543;DHT22;5320;50.046;10.314;2022-11-13T16:45:19;12.70;53.80
10543;DHT22;5320;50.046;10.314;2022-11-13T16:47:45;12.60;57.20
10543;DHT22;5320;50.046;10.314;2022-11-13T16:50:23;12.60;59.80
10543;DHT22;5320;50.046;10.314;2022-11-13T16:52:49;12.50;67.20
10543;DHT22;5320;50.046;10.314;2022-11-13T16:55:15;12.40;77.60
10543;DHT22;5320;50.046;10.314;2022-11-13T16:57:41;12.30;75.80
10543;DHT22;5320;50.046;10.314;2022-11-13T17:00:09;12.20;78.00